createdAt,value
2022-12-16T00:01:25.702Z,-0.84
2022-12-16T00:03:55.471Z,-0.87
2022-12-16T00:06:25.279Z,-0.71
2022-12-16T00:08:53.807Z,-0.73
2022-12-16T00:11:24.994Z,-0.69
2022-12-16T00:13:53.229Z,-0.59
2022-12-16T00:16:23.392Z,-0.30
2022-12-16T00:18:52.098Z,-0.52
2022-12-16T00:21:21.025Z,-0.59
2022-12-16T00:23:49.390Z,-0.74
2022-12-16T00:26:17.659Z,-0.83
2022-12-16T00:28:47.637Z,-0.78
2022-12-16T00:31:16.108Z,-0.73
2022-12-16T00:33:44.489Z,-0.71
2022-12-16T00:36:13.492Z,-0.68
2022-12-16T00:38:41.804Z,-0.73
2022-12-16T00:41:10.063Z,-0.77
2022-12-16T00:43:38.520Z,-0.69
2022-12-16T00:46:08.500Z,-0.71
2022-12-16T00:48:37.071Z,-0.79
2022-12-16T00:51:05.708Z,-0.83
2022-12-16T00:53:34.257Z,-0.77
2022-12-16T00:56:03.837Z,-0.73
2022-12-16T00:58:32.059Z,-0.63
2022-12-16T01:01:00.333Z,-0.62
2022-12-16T01:03:30.303Z,-0.62
2022-12-16T01:05:59.226Z,-0.58
2022-12-16T01:08:27.942Z,-0.60
2022-12-16T01:10:58.229Z,-0.33
2022-12-16T01:13:28.163Z,-0.60
2022-12-16T01:15:56.790Z,-0.66
2022-12-16T01:18:25.082Z,-0.54
2022-12-16T01:20:54.832Z,-0.65
2022-12-16T01:23:23.097Z,-0.62
2022-12-16T01:25:53.664Z,-0.69
2022-12-16T01:28:22.036Z,-0.74
2022-12-16T01:30:50.255Z,-0.67
2022-12-16T01:33:18.598Z,-0.67
2022-12-16T01:35:55.233Z,-0.61
2022-12-16T01:38:25.817Z,-0.73
2022-12-16T01:40:55.117Z,-0.72
2022-12-16T01:43:26.927Z,-0.77
2022-12-16T01:45:59.179Z,-0.64
2022-12-16T01:48:38.767Z,-0.68
2022-12-16T01:51:09.756Z,-0.66
2022-12-16T01:53:40.145Z,-0.71
2022-12-16T01:56:08.600Z,-0.68
2022-12-16T01:58:38.814Z,-0.69
2022-12-16T02:01:07.826Z,-0.71
2022-12-16T02:03:37.942Z,-0.68
2022-12-16T02:06:08.179Z,-0.63
2022-12-16T02:08:36.804Z,-0.70
2022-12-16T02:11:19.054Z,-0.63
2022-12-16T02:14:00.138Z,-0.62
2022-12-16T02:16:31.270Z,-0.61
2022-12-16T02:19:05.549Z,-0.54
2022-12-16T02:21:45.916Z,-0.57
2022-12-16T02:24:46.315Z,-0.62
2022-12-16T02:27:29.238Z,-0.65
2022-12-16T02:30:08.303Z,-0.56
2022-12-16T02:32:47.633Z,-0.58
2022-12-16T02:35:21.568Z,-0.56
2022-12-16T02:37:55.894Z,-0.33
2022-12-16T02:40:27.344Z,-0.43
2022-12-16T02:42:59.551Z,-0.46
2022-12-16T02:45:30.123Z,-0.54
2022-12-16T02:47:59.791Z,-0.75
2022-12-16T02:50:30.741Z,-0.71
2022-12-16T02:52:59.741Z,-0.71
2022-12-16T02:55:34.328Z,-0.64
2022-12-16T02:58:12.752Z,-0.61
2022-12-16T03:00:49.446Z,-0.55
2022-12-16T03:03:22.093Z,-0.51
2022-12-16T03:05:52.734Z,-0.49
2022-12-16T03:08:24.511Z,-0.45
2022-12-16T03:10:57.592Z,-0.40
2022-12-16T03:13:26.940Z,-0.35
2022-12-16T03:15:56.119Z,-0.48
2022-12-16T03:18:26.239Z,-0.42
2022-12-16T03:20:57.146Z,-0.50
2022-12-16T03:23:29.241Z,-0.55
2022-12-16T03:26:01.331Z,-0.61
2022-12-16T03:28:35.436Z,-0.67
2022-12-16T03:31:07.292Z,-0.70
2022-12-16T03:33:41.142Z,-0.69
2022-12-16T03:36:12.260Z,-0.65
2022-12-16T03:38:42.607Z,-0.54
2022-12-16T03:41:12.186Z,-0.60
2022-12-16T03:43:40.661Z,-0.60
2022-12-16T03:46:09.709Z,-0.58
2022-12-16T03:48:46.922Z,-0.58
2022-12-16T03:51:15.997Z,-0.60
2022-12-16T03:53:44.277Z,-0.61
2022-12-16T03:56:12.746Z,-0.67
2022-12-16T03:58:41.099Z,-0.70
2022-12-16T04:01:10.602Z,-0.63
2022-12-16T04:03:40.323Z,-0.74
2022-12-16T04:06:09.305Z,-0.63
2022-12-16T04:08:37.796Z,-0.67
2022-12-16T04:11:23.706Z,-0.60
2022-12-16T04:14:09.053Z,-0.61
2022-12-16T04:16:54.641Z,-0.67
2022-12-16T04:19:46.970Z,-0.47
2022-12-16T04:22:34.009Z,-0.58
2022-12-16T04:25:05.077Z,-0.48
2022-12-16T04:27:33.255Z,-0.63
2022-12-16T04:30:18.776Z,-0.68
2022-12-16T04:33:04.734Z,-0.77
2022-12-16T04:35:51.856Z,-0.72
2022-12-16T04:38:37.834Z,-0.53
2022-12-16T04:41:23.724Z,-0.50
2022-12-16T04:44:09.804Z,-0.52
2022-12-16T04:47:06.890Z,-0.59
2022-12-16T04:49:52.788Z,-0.54
2022-12-16T04:52:39.981Z,-0.33
2022-12-16T04:55:26.509Z,-0.46
2022-12-16T04:58:12.914Z,-0.37
2022-12-16T05:00:58.935Z,-0.63
2022-12-16T05:03:45.069Z,-0.59
2022-12-16T05:06:31.472Z,-0.52
2022-12-16T05:09:18.673Z,-0.39
2022-12-16T05:12:04.309Z,-0.47
2022-12-16T05:14:49.564Z,-0.59
2022-12-16T05:17:35.630Z,-0.82
2022-12-16T05:20:22.085Z,-0.87
2022-12-16T05:23:08.249Z,-1.03
2022-12-16T05:25:55.501Z,-1.04
2022-12-16T05:28:41.126Z,-1.05
2022-12-16T05:31:27.139Z,-0.98
2022-12-16T05:34:13.285Z,-1.00
2022-12-16T05:36:58.829Z,-1.04
2022-12-16T05:39:44.299Z,-1.05
2022-12-16T05:42:31.710Z,-1.05
2022-12-16T05:45:17.109Z,-1.00
2022-12-16T05:48:02.452Z,-1.12
2022-12-16T05:50:48.087Z,-1.20
2022-12-16T05:53:34.142Z,-1.19
2022-12-16T05:56:20.539Z,-1.26
2022-12-16T05:59:07.814Z,-1.30
2022-12-16T06:01:53.450Z,-1.29
2022-12-16T06:04:39.161Z,-1.34
2022-12-16T06:07:25.523Z,-1.24
2022-12-16T06:10:12.563Z,-1.27
2022-12-16T06:12:57.949Z,-1.14
2022-12-16T06:15:44.996Z,-1.13
2022-12-16T06:18:30.907Z,-1.15
2022-12-16T06:21:19.199Z,-0.93
2022-12-16T06:24:04.581Z,-0.94
2022-12-16T06:26:50.194Z,-0.91
2022-12-16T06:29:35.721Z,-0.90
2022-12-16T06:32:23.030Z,-0.79
2022-12-16T06:35:08.666Z,-0.71
2022-12-16T06:37:54.029Z,-0.74
2022-12-16T06:40:44.851Z,-0.74
2022-12-16T06:43:30.708Z,-0.84
2022-12-16T06:46:17.369Z,-0.70
2022-12-16T06:49:04.807Z,-0.49
2022-12-16T06:51:50.854Z,-0.78
2022-12-16T06:54:38.948Z,-0.75
2022-12-16T06:57:25.226Z,-0.74
2022-12-16T07:00:10.852Z,-0.68
2022-12-16T07:02:56.410Z,-0.67
2022-12-16T07:05:43.431Z,-0.70
2022-12-16T07:08:43.494Z,-0.74
2022-12-16T07:11:29.481Z,-0.60
2022-12-16T07:14:17.459Z,-0.62
2022-12-16T07:17:03.458Z,-0.62
2022-12-16T07:19:49.074Z,-0.64
2022-12-16T07:22:36.435Z,-0.62
2022-12-16T07:25:22.422Z,-0.63
2022-12-16T07:28:12.318Z,-0.67
2022-12-16T07:31:01.784Z,-0.61
2022-12-16T07:33:47.471Z,-0.67
2022-12-16T07:36:32.859Z,-0.64
2022-12-16T07:39:19.115Z,-0.61
2022-12-16T07:42:04.628Z,-0.50
2022-12-16T07:44:50.127Z,-0.49
2022-12-16T07:47:35.693Z,-0.60
2022-12-16T07:50:21.119Z,-0.46
2022-12-16T07:53:13.162Z,-0.35
2022-12-16T07:56:00.120Z,-0.36
2022-12-16T07:58:46.481Z,-0.31
2022-12-16T08:01:31.980Z,-0.26
2022-12-16T08:04:18.038Z,-0.19
2022-12-16T08:07:04.240Z,-0.09
2022-12-16T08:09:49.779Z,0.02
2022-12-16T08:12:37.096Z,0.09
2022-12-16T08:15:23.718Z,0.03
2022-12-16T08:18:09.603Z,0.04
2022-12-16T08:20:55.660Z,0.13
2022-12-16T08:23:41.747Z,0.13
2022-12-16T08:26:27.752Z,0.13
2022-12-16T08:29:42.737Z,0.14
2022-12-16T08:32:20.564Z,0.26
2022-12-16T08:35:06.277Z,0.39
2022-12-16T08:37:51.934Z,0.39
2022-12-16T08:40:38.455Z,0.36
2022-12-16T08:43:23.934Z,0.40
2022-12-16T08:46:12.893Z,0.53
2022-12-16T08:48:58.664Z,0.51
2022-12-16T08:51:44.732Z,0.75
2022-12-16T08:54:30.575Z,0.39
2022-12-16T08:57:16.397Z,0.32
2022-12-16T09:00:01.873Z,0.38
2022-12-16T09:02:49.869Z,0.36
2022-12-16T09:05:36.747Z,0.45
2022-12-16T09:08:22.885Z,0.39
2022-12-16T09:11:23.327Z,0.51
2022-12-16T09:14:09.412Z,0.56
2022-12-16T09:17:10.234Z,0.31
2022-12-16T09:19:57.553Z,0.51
2022-12-16T09:22:43.168Z,0.61
2022-12-16T09:25:28.779Z,0.59
2022-12-16T09:28:14.410Z,0.87
2022-12-16T09:31:00.248Z,0.95
2022-12-16T09:33:46.946Z,0.89
2022-12-16T09:36:33.898Z,0.83
2022-12-16T09:39:21.184Z,0.91
2022-12-16T09:42:17.990Z,0.94
2022-12-16T09:45:12.377Z,1.00
2022-12-16T09:48:05.540Z,0.91
2022-12-16T09:50:51.545Z,0.90
2022-12-16T09:53:41.779Z,0.79
2022-12-16T09:56:33.476Z,1.09
2022-12-16T09:59:21.528Z,1.10
2022-12-16T10:02:09.819Z,1.00
2022-12-16T10:04:56.407Z,1.05
2022-12-16T10:07:43.226Z,0.85
2022-12-16T10:10:39.539Z,0.87
2022-12-16T10:13:32.122Z,1.15
2022-12-16T10:16:35.604Z,1.26
2022-12-16T10:19:34.338Z,1.39
2022-12-16T10:22:24.041Z,1.41
2022-12-16T10:25:15.682Z,1.44
2022-12-16T10:28:06.142Z,1.44
2022-12-16T10:30:54.652Z,1.53
2022-12-16T10:33:42.949Z,1.48
2022-12-16T10:36:33.232Z,1.50
2022-12-16T10:39:36.207Z,1.38
2022-12-16T10:42:22.423Z,1.26
2022-12-16T10:45:11.480Z,1.25
2022-12-16T10:47:57.107Z,1.33
2022-12-16T10:50:43.123Z,1.33
2022-12-16T10:53:33.575Z,1.31
2022-12-16T10:56:30.319Z,1.18
2022-12-16T10:59:19.298Z,1.27
2022-12-16T11:02:15.625Z,1.37
2022-12-16T11:05:06.899Z,1.41
2022-12-16T11:07:55.649Z,1.06
2022-12-16T11:10:47.420Z,1.60
2022-12-16T11:13:39.280Z,1.69
2022-12-16T11:16:30.914Z,1.42
2022-12-16T11:19:18.472Z,1.49
2022-12-16T11:22:05.011Z,1.54
2022-12-16T11:24:51.011Z,1.82
2022-12-16T11:27:43.026Z,1.90
2022-12-16T11:30:37.827Z,1.99
2022-12-16T11:33:33.660Z,2.26
2022-12-16T11:36:31.175Z,2.21
2022-12-16T11:39:17.235Z,2.22
2022-12-16T11:42:05.769Z,2.43
2022-12-16T11:44:54.631Z,2.57
2022-12-16T11:47:51.567Z,2.34
2022-12-16T11:50:40.326Z,2.27
2022-12-16T11:53:37.564Z,2.31
2022-12-16T11:56:24.074Z,2.59
2022-12-16T11:59:12.975Z,2.63
2022-12-16T12:02:05.067Z,2.61
2022-12-16T12:04:50.974Z,2.63
2022-12-16T12:07:46.006Z,2.65
2022-12-16T12:10:49.179Z,2.53
2022-12-16T12:13:46.973Z,2.50
2022-12-16T12:16:36.931Z,2.56
2022-12-16T12:19:27.350Z,2.61
2022-12-16T12:22:18.508Z,2.46
2022-12-16T12:25:09.767Z,2.34
2022-12-16T12:28:04.248Z,2.52
2022-12-16T12:30:53.390Z,2.44
2022-12-16T12:33:48.189Z,2.27
2022-12-16T12:36:39.671Z,2.49
2022-12-16T12:39:35.264Z,2.39
2022-12-16T12:42:31.650Z,2.26
2022-12-16T12:45:32.841Z,2.22
2022-12-16T12:48:23.869Z,2.14
2022-12-16T12:51:12.449Z,1.98
2022-12-16T12:54:05.465Z,2.17
2022-12-16T12:57:00.562Z,2.38
2022-12-16T12:59:49.634Z,2.17
2022-12-16T13:02:40.574Z,2.17
2022-12-16T13:05:30.221Z,2.02
2022-12-16T13:08:51.258Z,2.05
2022-12-16T13:11:37.497Z,1.95
2022-12-16T13:15:05.978Z,2.08
2022-12-16T13:18:38.069Z,2.01
2022-12-16T13:21:28.194Z,1.93
2022-12-16T13:24:25.109Z,1.94
2022-12-16T13:27:19.605Z,2.10
2022-12-16T13:30:19.705Z,1.99
2022-12-16T13:33:14.909Z,1.88
2022-12-16T13:36:23.487Z,1.96
2022-12-16T13:39:10.879Z,1.90
2022-12-16T13:42:18.267Z,2.10
2022-12-16T13:45:15.613Z,1.98
2022-12-16T13:48:35.521Z,1.99
2022-12-16T13:51:21.132Z,1.91
2022-12-16T13:54:08.670Z,1.81
2022-12-16T13:56:57.697Z,1.88
2022-12-16T13:59:45.688Z,1.80
2022-12-16T14:02:37.598Z,1.66
2022-12-16T14:05:33.858Z,1.66
2022-12-16T14:08:20.143Z,1.61
2022-12-16T14:11:14.139Z,1.49
2022-12-16T14:14:03.233Z,1.49
2022-12-16T14:16:57.421Z,1.47
2022-12-16T14:19:52.147Z,1.46
2022-12-16T14:23:05.193Z,1.54
2022-12-16T14:25:51.299Z,1.53
2022-12-16T14:28:42.406Z,1.43
2022-12-16T14:31:41.347Z,1.39
2022-12-16T14:34:35.068Z,1.39
2022-12-16T14:37:32.342Z,1.36
2022-12-16T14:40:20.248Z,1.38
2022-12-16T14:43:13.019Z,1.26
2022-12-16T14:46:07.896Z,1.27
2022-12-16T14:48:56.101Z,1.17
2022-12-16T14:51:44.224Z,1.21
2022-12-16T14:54:38.452Z,1.24
2022-12-16T14:57:30.463Z,1.15
2022-12-16T15:00:22.612Z,1.19
2022-12-16T15:03:09.705Z,1.19
2022-12-16T15:05:57.346Z,1.05
2022-12-16T15:08:43.315Z,0.95
2022-12-16T15:11:31.409Z,0.98
2022-12-16T15:14:33.522Z,1.01
2022-12-16T15:17:19.309Z,0.90
2022-12-16T15:20:07.681Z,0.90
2022-12-16T15:22:53.580Z,0.89
2022-12-16T15:25:41.209Z,0.88
2022-12-16T15:28:42.442Z,0.91
2022-12-16T15:31:43.328Z,0.93
2022-12-16T15:34:44.233Z,0.92
2022-12-16T15:37:41.966Z,0.82
2022-12-16T15:40:43.820Z,0.73
2022-12-16T15:43:56.129Z,0.72
2022-12-16T15:46:47.465Z,0.79
2022-12-16T15:49:39.647Z,0.77
2022-12-16T15:52:41.248Z,0.80
2022-12-16T15:55:46.280Z,0.79
2022-12-16T15:58:34.239Z,0.77
2022-12-16T16:01:21.052Z,0.80
2022-12-16T16:04:10.111Z,0.78
2022-12-16T16:06:56.614Z,0.81
2022-12-16T16:09:44.017Z,0.78
2022-12-16T16:12:31.581Z,0.79
2022-12-16T16:15:17.592Z,0.81
2022-12-16T16:18:06.010Z,0.77
2022-12-16T16:20:53.503Z,0.75
2022-12-16T16:23:39.466Z,0.69
2022-12-16T16:26:29.858Z,0.71
2022-12-16T16:29:15.427Z,0.62
2022-12-16T16:32:04.318Z,0.66
2022-12-16T16:34:51.030Z,0.69
2022-12-16T16:37:39.961Z,0.74
2022-12-16T16:40:35.917Z,0.77
2022-12-16T16:43:21.887Z,0.74
2022-12-16T16:46:11.428Z,0.74
2022-12-16T16:48:57.582Z,0.73
2022-12-16T16:51:43.791Z,0.78
2022-12-16T16:54:30.913Z,0.78
2022-12-16T16:57:18.933Z,0.91
2022-12-16T17:00:05.029Z,0.78
2022-12-16T17:02:51.088Z,0.80
2022-12-16T17:05:37.056Z,0.91
2022-12-16T17:08:23.192Z,0.81
2022-12-16T17:11:10.752Z,0.65
2022-12-16T17:13:57.831Z,0.63
2022-12-16T17:16:43.450Z,0.64
2022-12-16T17:19:31.499Z,0.54
2022-12-16T17:22:17.863Z,0.54
2022-12-16T17:25:04.173Z,0.64
2022-12-16T17:27:52.125Z,0.70
2022-12-16T17:30:45.184Z,0.72
2022-12-16T17:33:34.564Z,0.82
2022-12-16T17:36:20.880Z,0.84
2022-12-16T17:39:08.675Z,0.79
2022-12-16T17:41:54.646Z,0.70
2022-12-16T17:44:41.899Z,0.94
2022-12-16T17:47:28.091Z,0.74
2022-12-16T17:50:14.273Z,0.76
2022-12-16T17:53:00.140Z,0.72
2022-12-16T17:55:46.358Z,0.75
2022-12-16T17:58:32.462Z,0.78
2022-12-16T18:01:24.619Z,0.78
2022-12-16T18:04:14.612Z,0.79
2022-12-16T18:07:08.642Z,0.88
2022-12-16T18:09:59.316Z,0.80
2022-12-16T18:16:22.127Z,0.73
2022-12-16T18:19:12.183Z,0.69
2022-12-16T18:22:00.668Z,0.68
2022-12-16T18:24:48.668Z,0.69
2022-12-16T18:27:37.343Z,0.64
2022-12-16T18:30:28.625Z,0.64
2022-12-16T18:33:18.000Z,0.65
2022-12-16T18:36:07.287Z,0.61
2022-12-16T18:38:55.839Z,0.59
2022-12-16T18:41:43.002Z,0.71
2022-12-16T18:44:31.194Z,0.65
2022-12-16T18:47:18.178Z,0.57
2022-12-16T18:50:04.380Z,0.49
2022-12-16T18:52:56.305Z,0.42
2022-12-16T18:55:42.754Z,0.44
2022-12-16T18:58:50.178Z,0.40
2022-12-16T19:01:36.872Z,0.37
2022-12-16T19:04:25.866Z,0.29
2022-12-16T19:07:34.358Z,0.38
2022-12-16T19:10:23.250Z,0.37
2022-12-16T19:13:14.840Z,0.33
2022-12-16T19:16:25.082Z,0.32
2022-12-16T19:19:19.970Z,0.30
2022-12-16T19:22:07.354Z,0.29
2022-12-16T19:24:56.351Z,0.32
2022-12-16T19:27:46.427Z,0.36
2022-12-16T19:30:42.601Z,0.25
2022-12-16T19:33:34.712Z,0.27
2022-12-16T19:36:22.453Z,0.26
2022-12-16T19:39:09.202Z,0.21
2022-12-16T19:42:04.503Z,0.20
2022-12-16T19:45:01.821Z,0.19
2022-12-16T19:47:51.960Z,0.15
2022-12-16T19:50:43.078Z,0.13
2022-12-16T19:53:33.561Z,0.08
2022-12-16T19:56:19.786Z,0.06
2022-12-16T19:59:06.578Z,0.03
2022-12-16T20:05:00.827Z,0.05
2022-12-16T20:07:48.307Z,0.07
2022-12-16T20:10:38.795Z,0.04
2022-12-16T20:13:30.130Z,0.02
2022-12-16T20:16:20.885Z,0.05
2022-12-16T20:19:15.931Z,0.02
2022-12-16T20:25:11.483Z,-0.07
2022-12-16T20:27:57.636Z,-0.11
2022-12-16T20:30:43.938Z,-0.10
2022-12-16T20:33:32.497Z,-0.14
2022-12-16T20:36:21.429Z,-0.11
2022-12-16T20:39:12.838Z,-0.10
2022-12-16T20:42:00.809Z,-0.09
2022-12-16T20:44:48.447Z,-0.08
2022-12-16T20:47:34.574Z,-0.07
2022-12-16T20:50:21.270Z,-0.06
2022-12-16T20:53:09.662Z,-0.06
2022-12-16T20:55:56.209Z,-0.05
2022-12-16T20:58:42.590Z,-0.09
2022-12-16T21:01:28.972Z,-0.15
2022-12-16T21:04:15.078Z,-0.11
2022-12-16T21:07:16.177Z,-0.08
2022-12-16T21:10:03.248Z,-0.02
2022-12-16T21:12:48.952Z,0.04
2022-12-16T21:15:35.135Z,0.03
2022-12-16T21:18:22.027Z,0.05
2022-12-16T21:21:10.464Z,0.08
2022-12-16T21:23:56.716Z,0.11
2022-12-16T21:30:12.856Z,0.15
2022-12-16T21:33:00.868Z,0.10
2022-12-16T21:35:46.357Z,0.01
2022-12-16T21:38:32.325Z,-0.02
2022-12-16T21:41:19.280Z,0.09
2022-12-16T21:44:10.769Z,0.10
2022-12-16T21:46:57.016Z,0.10
2022-12-16T21:49:44.766Z,0.10
2022-12-16T21:52:30.962Z,0.12
2022-12-16T21:55:19.791Z,0.15
2022-12-16T21:58:07.562Z,0.17
2022-12-16T22:00:58.831Z,0.15
2022-12-16T22:03:52.911Z,0.05
2022-12-16T22:06:42.179Z,0.04
2022-12-16T22:09:31.797Z,0.04
2022-12-16T22:12:18.655Z,0.08
2022-12-16T22:15:05.321Z,0.08
2022-12-16T22:17:58.012Z,0.06
2022-12-16T22:20:45.933Z,0.10
2022-12-16T22:23:33.947Z,0.04
2022-12-16T22:26:20.046Z,0.06
2022-12-16T22:29:12.956Z,0.10
2022-12-16T22:32:02.632Z,0.16
2022-12-16T22:34:51.219Z,0.13
2022-12-16T22:37:39.289Z,0.15
2022-12-16T22:40:29.627Z,0.14
2022-12-16T22:43:18.616Z,0.15
2022-12-16T22:46:04.666Z,0.17
2022-12-16T22:48:50.909Z,0.13
2022-12-16T22:51:40.283Z,0.07
2022-12-16T22:54:28.403Z,0.26
2022-12-16T22:57:14.064Z,0.04
2022-12-16T23:00:00.513Z,0.92
2022-12-16T23:02:46.970Z,0.87
2022-12-16T23:05:34.312Z,0.62
2022-12-16T23:08:34.530Z,0.37
2022-12-16T23:11:22.704Z,0.32
2022-12-16T23:14:08.763Z,0.32
2022-12-16T23:16:55.797Z,0.37
2022-12-16T23:19:42.413Z,0.32
2022-12-16T23:22:28.256Z,0.38
2022-12-16T23:25:15.441Z,0.41
2022-12-16T23:28:01.166Z,0.39
2022-12-16T23:30:47.071Z,0.35
2022-12-16T23:33:32.779Z,0.27
2022-12-16T23:36:18.592Z,0.22
2022-12-16T23:39:09.845Z,0.24
2022-12-16T23:41:53.382Z,0.22
2022-12-16T23:44:41.980Z,0.27
2022-12-16T23:47:27.568Z,0.30
2022-12-16T23:50:15.711Z,0.32
2022-12-16T23:53:01.761Z,0.31
2022-12-16T23:55:47.850Z,0.21
2022-12-16T23:58:34.982Z,0.21
